Time;durP1;ratioP1;P1;durP2;ratioP2;P2;SDS_P1;SDS_P2;PMS_P1;PMS_P2;Temp;Humidity;BMP_temperature;BMP_pressure;BME280_temperature;BME280_humidity;BME280_pressure;Samples;Min_cycle;Max_cycle;Signal;HPM_P1;HPM_P2
2022/06/08 00:00:20;;;;;;;0.00;0.00;;;17.40;99.90;;;;;;4970203;28;20422;-73
2022/06/08 00:02:51;;;;;;;0.20;0.20;;;17.30;99.90;;;;;;4972017;28;20031;-73
2022/06/08 00:05:18;;;;;;;0.00;0.00;;;17.30;99.90;;;;;;4971274;28;20030;-73
2022/06/08 00:07:43;;;;;;;0.15;0.15;;;17.40;99.90;;;;;;4971995;28;20081;-73
2022/06/08 00:10:10;;;;;;;0.10;0.10;;;17.30;99.90;;;;;;4971486;28;20034;-73
2022/06/08 00:12:36;;;;;;;0.00;0.00;;;17.30;99.90;;;;;;4971714;28;20038;-73
2022/06/08 00:15:07;;;;;;;0.00;0.00;;;17.30;99.90;;;;;;4971673;28;20039;-73
2022/06/08 00:17:33;;;;;;;0.08;0.08;;;17.10;99.90;;;;;;4971814;28;20495;-73
2022/06/08 00:19:59;;;;;;;0.22;0.22;;;17.20;99.90;;;;;;4971019;28;20030;-73
2022/06/08 00:22:25;;;;;;;0.00;0.00;;;17.10;99.90;;;;;;4971466;28;20030;-73
2022/06/08 00:24:50;;;;;;;0.05;0.05;;;17.00;99.90;;;;;;4971917;28;20042;-73
2022/06/08 00:27:16;;;;;;;0.15;0.15;;;17.00;99.90;;;;;;4971852;28;20030;-73
2022/06/08 00:29:43;;;;;;;0.00;0.00;;;17.00;99.90;;;;;;4971002;28;20110;-73
2022/06/08 00:32:09;;;;;;;0.00;0.00;;;17.00;99.90;;;;;;4970423;28;20423;-73
2022/06/08 00:34:35;;;;;;;0.00;0.00;;;16.80;99.90;;;;;;4973662;28;20031;-73
2022/06/08 00:37:01;;;;;;;0.00;0.00;;;16.70;99.90;;;;;;4975543;28;20372;-73
2022/06/08 00:39:27;;;;;;;0.28;0.28;;;16.70;99.90;;;;;;4974710;28;20041;-73
2022/06/08 00:41:59;;;;;;;0.30;0.30;;;16.70;99.90;;;;;;4975286;28;20049;-73
2022/06/08 00:44:31;;;;;;;0.38;0.38;;;16.70;99.90;;;;;;4975518;28;20034;-73
2022/06/08 00:47:00;;;;;;;0.00;0.00;;;16.60;99.90;;;;;;4974250;28;20026;-73
2022/06/08 00:49:42;;;;;;;0.03;0.00;;;16.60;99.90;;;;;;4974841;28;20091;-73
2022/06/08 00:52:09;;;;;;;0.47;0.47;;;16.50;99.90;;;;;;4974336;28;20110;-73
2022/06/08 00:54:39;;;;;;;0.38;0.38;;;16.60;99.90;;;;;;4974448;28;20027;-73
2022/06/08 00:57:13;;;;;;;0.30;0.30;;;16.40;99.90;;;;;;4974440;28;20118;-73
2022/06/08 00:59:47;;;;;;;0.20;0.20;;;16.10;99.90;;;;;;4973165;28;20042;-73
2022/06/08 01:02:13;;;;;;;0.00;0.00;;;15.90;99.90;;;;;;4974817;28;20121;-73
2022/06/08 01:04:39;;;;;;;0.00;0.00;;;15.70;99.90;;;;;;4972012;28;20174;-73
2022/06/08 01:07:05;;;;;;;0.10;0.10;;;15.60;99.90;;;;;;4965873;28;20132;-73
2022/06/08 01:09:39;;;;;;;0.55;0.43;;;15.50;99.90;;;;;;4966707;28;20027;-73
2022/06/08 01:12:13;;;;;;;15.88;1.08;;;15.40;99.90;;;;;;4972359;28;20696;-73
2022/06/08 01:14:39;;;;;;;0.10;0.10;;;15.40;99.90;;;;;;4973687;28;20371;-73
2022/06/08 01:17:18;;;;;;;0.00;0.00;;;15.40;99.90;;;;;;4973942;28;20606;-73
2022/06/08 01:19:47;;;;;;;0.20;0.20;;;15.40;99.90;;;;;;4973994;28;20030;-73
2022/06/08 01:22:17;;;;;;;0.00;0.00;;;15.40;99.90;;;;;;4972295;28;20027;-73
2022/06/08 01:24:50;;;;;;;0.00;0.00;;;15.30;99.90;;;;;;4974035;28;20031;-73
2022/06/08 01:27:39;;;;;;;0.15;0.15;;;15.00;99.90;;;;;;4973483;28;20030;-73
2022/06/08 01:30:29;;;;;;;0.77;0.77;;;14.90;99.90;;;;;;4973982;28;20027;-73
2022/06/08 01:33:53;;;;;;;0.52;0.35;;;14.90;99.90;;;;;;4973162;28;20042;-73
2022/06/08 01:36:34;;;;;;;0.00;0.00;;;14.90;99.90;;;;;;4957059;28;20590;-73
2022/06/08 01:39:13;;;;;;;0.00;0.00;;;14.80;99.90;;;;;;4973848;28;20077;-73
2022/06/08 01:42:11;;;;;;;0.08;0.08;;;14.70;99.90;;;;;;4968821;28;20074;-73
2022/06/08 01:48:07;;;;;;;1.80;1.15;;;14.70;99.90;;;;;;4953806;29;20208;-73
2022/06/08 01:50:52;;;;;;;0.43;0.43;;;14.80;99.90;;;;;;4954350;29;20051;-73
2022/06/08 01:53:46;;;;;;;0.10;0.10;;;14.70;99.90;;;;;;4954561;28;20043;-73
2022/06/08 01:56:42;;;;;;;0.00;0.00;;;14.70;99.90;;;;;;4953911;29;20094;-73
2022/06/08 01:59:17;;;;;;;0.20;0.20;;;14.60;99.90;;;;;;4953373;29;20420;-73
2022/06/08 02:02:18;;;;;;;0.38;0.35;;;14.60;99.90;;;;;;4953419;29;20156;-73
2022/06/08 02:05:09;;;;;;;4.32;1.27;;;14.50;99.90;;;;;;4945040;28;20051;-73
2022/06/08 02:08:15;;;;;;;0.10;0.10;;;14.50;99.90;;;;;;4953479;28;20066;-73
2022/06/08 02:10:57;;;;;;;0.88;0.80;;;14.50;99.90;;;;;;4953794;28;20689;-73
2022/06/08 02:13:40;;;;;;;0.08;0.08;;;14.50;99.90;;;;;;4954451;28;20050;-73
2022/06/08 02:16:41;;;;;;;0.00;0.00;;;14.40;99.90;;;;;;4968441;28;20070;-73
2022/06/08 02:19:15;;;;;;;1.45;0.98;;;14.40;99.90;;;;;;4956775;28;20388;-73
2022/06/08 02:21:48;;;;;;;0.13;0.13;;;14.40;99.90;;;;;;4973617;28;20043;-73
2022/06/08 02:25:09;;;;;;;0.00;0.00;;;14.40;99.90;;;;;;4972560;28;20023;-73
2022/06/08 02:28:07;;;;;;;0.00;0.00;;;14.40;99.90;;;;;;4966513;28;20090;-73
2022/06/08 02:30:45;;;;;;;1.17;0.47;;;14.30;99.90;;;;;;4972852;28;20057;-73
2022/06/08 02:36:29;;;;;;;;;;;14.40;99.90;;;;;;4972931;28;20031;-73
2022/06/08 02:39:13;;;;;;;0.15;0.15;;;14.30;99.90;;;;;;4971537;28;20277;-73
2022/06/08 02:41:43;;;;;;;0.00;0.00;;;14.40;99.90;;;;;;4972262;28;20122;-73
2022/06/08 02:44:15;;;;;;;0.43;0.43;;;14.40;99.90;;;;;;4972197;28;20035;-73
2022/06/08 02:47:02;;;;;;;0.38;0.38;;;14.40;99.90;;;;;;4972276;28;20025;-73
2022/06/08 02:49:28;;;;;;;0.28;0.28;;;14.40;99.90;;;;;;4972473;28;20026;-73
2022/06/08 02:52:01;;;;;;;0.20;0.20;;;14.50;99.90;;;;;;4971982;28;20037;-72
2022/06/08 02:54:29;;;;;;;0.03;0.03;;;14.50;99.90;;;;;;4972020;28;20027;-73
2022/06/08 02:57:10;;;;;;;0.10;0.10;;;14.40;99.90;;;;;;4971638;28;20035;-73
2022/06/08 03:00:04;;;;;;;0.10;0.10;;;14.40;99.90;;;;;;4972322;28;20026;-73
2022/06/08 03:02:54;;;;;;;0.00;0.00;;;14.50;99.90;;;;;;4971719;28;20042;-73
2022/06/08 03:05:45;;;;;;;0.30;0.30;;;14.50;99.90;;;;;;4972867;28;20452;-73
2022/06/08 03:08:26;;;;;;;0.08;0.08;;;14.50;99.90;;;;;;4972880;28;20045;-74
2022/06/08 03:10:53;;;;;;;0.00;0.00;;;14.50;99.90;;;;;;4971518;28;20406;-73
2022/06/08 03:13:30;;;;;;;0.30;0.30;;;14.60;99.90;;;;;;4971444;28;20045;-73
2022/06/08 03:16:05;;;;;;;1.58;1.35;;;14.60;99.90;;;;;;4972767;28;20046;-73
2022/06/08 03:18:31;;;;;;;0.10;0.10;;;14.70;99.90;;;;;;4970581;28;20522;-73
2022/06/08 03:21:02;;;;;;;0.05;0.05;;;14.70;99.90;;;;;;4972355;28;20589;-73
2022/06/08 03:23:29;;;;;;;0.10;0.10;;;14.70;99.90;;;;;;4971202;28;20479;-73
2022/06/08 03:25:55;;;;;;;0.13;0.13;;;14.70;99.90;;;;;;4971534;28;20030;-74
2022/06/08 03:28:21;;;;;;;0.00;0.00;;;14.80;99.90;;;;;;4971308;28;20390;-73
2022/06/08 03:30:47;;;;;;;0.08;0.08;;;14.80;99.90;;;;;;4971998;28;20030;-73
2022/06/08 03:33:13;;;;;;;3.03;0.45;;;14.80;99.90;;;;;;4970977;28;20041;-73
2022/06/08 03:35:41;;;;;;;0.10;0.10;;;14.80;99.90;;;;;;4972326;28;20037;-73
2022/06/08 03:38:10;;;;;;;0.10;0.10;;;14.80;99.90;;;;;;4928548;28;20118;-73
2022/06/08 03:40:36;;;;;;;0.00;0.00;;;14.90;99.90;;;;;;4970865;28;20101;-71
2022/06/08 03:43:02;;;;;;;3.70;0.45;;;14.90;99.90;;;;;;4963242;28;20101;-70
2022/06/08 03:45:47;;;;;;;1.10;1.05;;;14.90;99.90;;;;;;4971220;28;20479;-71
2022/06/08 03:48:14;;;;;;;0.50;0.15;;;14.90;99.90;;;;;;4970222;28;20039;-71
2022/06/08 03:50:42;;;;;;;0.35;0.35;;;15.00;99.90;;;;;;4978304;28;20022;-70
2022/06/08 03:53:18;;;;;;;0.00;0.00;;;14.90;99.90;;;;;;4990414;28;20046;-70
2022/06/08 03:55:47;;;;;;;0.10;0.10;;;14.90;99.90;;;;;;4991556;28;20034;-69
2022/06/08 03:58:14;;;;;;;0.20;0.20;;;15.00;99.90;;;;;;4991337;28;20359;-71
2022/06/08 04:00:41;;;;;;;0.20;0.20;;;15.00;99.90;;;;;;4989591;28;20551;-72
2022/06/08 04:03:09;;;;;;;0.10;0.10;;;15.00;99.90;;;;;;4959265;28;20066;-72
2022/06/08 04:05:35;;;;;;;1.00;0.73;;;15.10;99.90;;;;;;4967536;28;20030;-72
2022/06/08 04:08:03;;;;;;;1.55;0.80;;;15.00;99.90;;;;;;4969991;28;20034;-73
2022/06/08 04:10:29;;;;;;;0.10;0.10;;;15.10;99.90;;;;;;4970059;28;20109;-72
2022/06/08 04:12:55;;;;;;;0.10;0.10;;;15.10;99.90;;;;;;4971405;28;20027;-71
2022/06/08 04:18:07;;;;;;;0.10;0.10;;;15.10;99.90;;;;;;4970704;28;20027;-72
2022/06/08 04:20:33;;;;;;;0.40;0.40;;;15.10;99.90;;;;;;4953392;28;20089;-73
2022/06/08 04:23:00;;;;;;;0.55;0.55;;;15.10;99.90;;;;;;4971671;28;20097;-72
2022/06/08 04:25:26;;;;;;;0.20;0.20;;;15.20;99.90;;;;;;4971111;28;20430;-73
2022/06/08 04:27:53;;;;;;;0.88;0.55;;;15.20;99.90;;;;;;4971228;28;20041;-73
2022/06/08 04:30:20;;;;;;;13.32;3.35;;;15.10;99.90;;;;;;4970817;28;20078;-73
2022/06/08 04:32:46;;;;;;;0.20;0.20;;;15.10;99.90;;;;;;4971017;28;20046;-73
2022/06/08 04:35:13;;;;;;;0.00;0.00;;;15.10;99.90;;;;;;4971070;28;20034;-73
2022/06/08 04:37:39;;;;;;;1.30;0.95;;;15.10;99.90;;;;;;4969937;28;20037;-72
2022/06/08 04:40:09;;;;;;;0.52;0.25;;;15.10;99.90;;;;;;4969153;28;20034;-71
2022/06/08 04:42:35;;;;;;;0.00;0.00;;;15.10;99.90;;;;;;4969862;28;20043;-71
2022/06/08 04:45:03;;;;;;;0.38;0.38;;;15.10;99.90;;;;;;4971192;28;20278;-71
2022/06/08 04:47:29;;;;;;;0.35;0.35;;;15.20;99.90;;;;;;4971255;28;20118;-73
2022/06/08 04:49:55;;;;;;;0.60;0.60;;;15.20;99.90;;;;;;4970310;28;20126;-72
2022/06/08 04:52:21;;;;;;;0.22;0.22;;;15.20;99.90;;;;;;4970834;28;20035;-72
2022/06/08 04:54:47;;;;;;;0.15;0.15;;;15.20;99.90;;;;;;4970953;28;20109;-73
2022/06/08 04:57:13;;;;;;;0.45;0.45;;;15.10;99.90;;;;;;4970960;28;20114;-73
2022/06/08 04:59:40;;;;;;;0.00;0.00;;;15.10;99.90;;;;;;4970348;28;20035;-73
2022/06/08 05:02:07;;;;;;;0.00;0.00;;;15.20;99.90;;;;;;4985955;28;20081;-73
2022/06/08 05:04:32;;;;;;;0.43;0.38;;;15.20;99.90;;;;;;4971204;28;20035;-72
2022/06/08 05:06:58;;;;;;;0.43;0.40;;;15.30;99.90;;;;;;4971013;28;20035;-71
2022/06/08 05:09:25;;;;;;;0.90;0.50;;;15.30;99.90;;;;;;4968955;28;20030;-69
2022/06/08 05:11:51;;;;;;;0.95;0.60;;;15.60;99.90;;;;;;4970153;28;20034;-71
2022/06/08 05:14:17;;;;;;;1.10;1.00;;;15.70;99.90;;;;;;4969839;28;20508;-72
2022/06/08 05:16:45;;;;;;;0.00;0.00;;;15.70;99.90;;;;;;4971053;28;20046;-72
2022/06/08 05:19:10;;;;;;;0.40;0.32;;;15.70;99.90;;;;;;4970135;28;20108;-71
2022/06/08 05:21:37;;;;;;;0.30;0.30;;;15.80;99.90;;;;;;4972584;28;20082;-72
2022/06/08 05:24:04;;;;;;;0.47;0.47;;;15.80;99.90;;;;;;4973273;28;20038;-72
2022/06/08 05:26:30;;;;;;;0.35;0.35;;;15.80;99.90;;;;;;4973303;28;20039;-72
2022/06/08 05:28:55;;;;;;;0.73;0.73;;;15.90;99.90;;;;;;4972166;28;20065;-72
2022/06/08 05:31:21;;;;;;;0.05;0.05;;;15.80;99.90;;;;;;4973095;28;20046;-74
2022/06/08 05:33:47;;;;;;;1.58;0.70;;;15.80;99.90;;;;;;4973309;28;20066;-72
2022/06/08 05:36:16;;;;;;;1.60;0.88;;;15.80;99.90;;;;;;4972784;28;20023;-71
2022/06/08 05:38:42;;;;;;;0.00;0.00;;;15.90;99.90;;;;;;4972364;28;20493;-71
2022/06/08 05:41:07;;;;;;;0.95;0.93;;;15.90;99.90;;;;;;4972627;28;20026;-72
2022/06/08 05:43:33;;;;;;;0.00;0.00;;;15.90;99.90;;;;;;4973314;28;20053;-71
2022/06/08 05:45:59;;;;;;;0.17;0.17;;;15.90;99.90;;;;;;4974408;28;20486;-71
2022/06/08 05:48:25;;;;;;;0.08;0.08;;;15.90;99.90;;;;;;4973973;28;20360;-65
2022/06/08 05:50:50;;;;;;;0.00;0.00;;;15.90;99.90;;;;;;4973596;28;20117;-68
2022/06/08 05:53:16;;;;;;;0.20;0.20;;;15.90;99.90;;;;;;4973592;28;20070;-65
2022/06/08 05:55:43;;;;;;;0.25;0.25;;;16.00;99.90;;;;;;4974005;28;20135;-67
2022/06/08 05:58:09;;;;;;;0.20;0.20;;;16.00;99.90;;;;;;4974084;28;20034;-66
2022/06/08 06:00:41;;;;;;;0.52;0.52;;;16.10;99.90;;;;;;4971984;28;20035;-66
2022/06/08 06:03:10;;;;;;;0.05;0.05;;;16.20;99.90;;;;;;4969753;28;20039;-67
2022/06/08 06:05:39;;;;;;;0.00;0.00;;;16.20;99.90;;;;;;4972353;28;20035;-66
2022/06/08 06:08:05;;;;;;;27.45;1.35;;;16.20;99.90;;;;;;4973726;28;20042;-66
2022/06/08 06:10:34;;;;;;;0.15;0.15;;;16.30;99.90;;;;;;4972808;28;20018;-65
2022/06/08 06:12:59;;;;;;;0.57;0.52;;;16.40;99.90;;;;;;4985331;28;20069;-66
2022/06/08 06:15:26;;;;;;;0.20;0.13;;;16.50;99.90;;;;;;4972443;28;20651;-66
2022/06/08 06:17:52;;;;;;;0.00;0.00;;;16.60;99.90;;;;;;4973001;28;20043;-66
2022/06/08 06:20:19;;;;;;;0.10;0.10;;;16.70;99.90;;;;;;4971356;28;20056;-66
2022/06/08 06:22:45;;;;;;;0.20;0.20;;;16.70;99.90;;;;;;4973550;28;20038;-66
2022/06/08 06:25:11;;;;;;;0.20;0.20;;;16.70;99.90;;;;;;4973629;28;20038;-66
2022/06/08 06:27:37;;;;;;;0.52;0.52;;;16.60;99.90;;;;;;4973414;28;20023;-72
2022/06/08 06:30:07;;;;;;;0.08;0.08;;;16.60;99.90;;;;;;4971004;28;20022;-73
2022/06/08 06:32:37;;;;;;;0.10;0.10;;;16.60;99.90;;;;;;4970956;28;20030;-73
2022/06/08 06:35:08;;;;;;;0.20;0.20;;;16.60;99.90;;;;;;4969939;28;20046;-72
2022/06/08 06:37:34;;;;;;;;;;;16.60;99.90;;;;;;4969925;28;20034;-71
2022/06/08 06:39:59;;;;;;;0.00;0.00;;;16.50;99.90;;;;;;4959014;28;19920;-72
2022/06/08 06:42:29;;;;;;;0.05;0.05;;;16.60;99.90;;;;;;4966566;28;20038;-72
2022/06/08 06:44:55;;;;;;;0.17;0.17;;;16.60;99.90;;;;;;4971683;28;20022;-71
2022/06/08 06:47:21;;;;;;;0.00;0.00;;;16.70;99.90;;;;;;4971932;28;20507;-71
2022/06/08 06:49:47;;;;;;;0.00;0.00;;;16.60;99.90;;;;;;4966963;28;20022;-71
2022/06/08 06:52:14;;;;;;;5.38;1.00;;;16.60;99.90;;;;;;4972849;28;20049;-71
2022/06/08 06:54:41;;;;;;;0.13;0.13;;;16.70;99.90;;;;;;4972839;28;20450;-71
2022/06/08 06:57:08;;;;;;;2.17;1.27;;;16.80;99.90;;;;;;4955334;28;20035;-73
2022/06/08 06:59:36;;;;;;;3.20;1.00;;;16.90;99.90;;;;;;4954273;28;20026;-72
2022/06/08 07:02:02;;;;;;;2.00;0.90;;;17.10;99.90;;;;;;4971480;28;20038;-72
2022/06/08 07:04:28;;;;;;;0.10;0.10;;;17.30;99.90;;;;;;4972651;28;20372;-72
2022/06/08 07:06:54;;;;;;;0.00;0.00;;;17.40;99.90;;;;;;4971407;28;20034;-72
2022/06/08 07:09:20;;;;;;;0.00;0.00;;;17.60;99.90;;;;;;4971206;28;20027;-72
2022/06/08 07:11:46;;;;;;;0.00;0.00;;;17.70;99.90;;;;;;4971241;28;20085;-72
2022/06/08 07:14:18;;;;;;;0.35;0.35;;;17.70;99.90;;;;;;4971012;28;20066;-73
2022/06/08 07:16:45;;;;;;;2.17;0.98;;;17.90;99.90;;;;;;4970833;28;20506;-73
2022/06/08 07:19:12;;;;;;;0.85;0.73;;;18.00;99.90;;;;;;4960347;28;20479;-73
2022/06/08 07:21:41;;;;;;;0.00;0.00;;;18.10;99.90;;;;;;4971081;28;20089;-73
2022/06/08 07:24:07;;;;;;;0.00;0.00;;;18.10;99.90;;;;;;4955191;28;20061;-73
2022/06/08 07:26:34;;;;;;;1.65;1.08;;;18.20;99.90;;;;;;4970782;28;20462;-73
2022/06/08 07:28:59;;;;;;;0.10;0.10;;;18.30;99.90;;;;;;4970395;28;20034;-73
2022/06/08 07:31:28;;;;;;;0.08;0.08;;;18.40;99.90;;;;;;4971968;28;20027;-73
2022/06/08 07:33:53;;;;;;;0.10;0.05;;;18.70;99.90;;;;;;4972228;28;20019;-73
2022/06/08 07:36:20;;;;;;;0.20;0.20;;;18.80;99.90;;;;;;4970786;28;20037;-74
2022/06/08 07:38:46;;;;;;;1.90;0.70;;;19.00;99.90;;;;;;4971033;28;20491;-73
2022/06/08 07:41:12;;;;;;;0.10;0.10;;;19.10;99.90;;;;;;4970111;28;20122;-73
2022/06/08 07:43:38;;;;;;;0.00;0.00;;;19.40;99.90;;;;;;4969804;28;20030;-74
2022/06/08 07:46:07;;;;;;;1.38;0.45;;;19.50;99.90;;;;;;4968840;28;20038;-73
2022/06/08 07:51:21;;;;;;;0.00;0.00;;;19.60;99.90;;;;;;4971985;28;20078;-72
2022/06/08 07:53:46;;;;;;;0.30;0.08;;;19.70;99.90;;;;;;4970537;28;20058;-73
2022/06/08 07:56:12;;;;;;;0.08;0.08;;;19.50;99.90;;;;;;4972392;28;20407;-73
2022/06/08 07:58:38;;;;;;;2.13;0.45;;;19.60;99.90;;;;;;4970948;28;20042;-73
2022/06/08 08:01:06;;;;;;;0.00;0.00;;;19.70;99.90;;;;;;4970077;28;20618;-73
2022/06/08 08:03:32;;;;;;;0.00;0.00;;;19.80;99.90;;;;;;4954180;28;20043;-73
2022/06/08 08:05:58;;;;;;;0.00;0.00;;;19.80;99.90;;;;;;4971726;28;20027;-73
2022/06/08 08:08:24;;;;;;;0.00;0.00;;;19.70;99.90;;;;;;4969931;28;20069;-73
2022/06/08 08:10:49;;;;;;;1.17;0.80;;;19.60;99.90;;;;;;4970896;28;20591;-73
2022/06/08 08:13:15;;;;;;;0.10;0.10;;;19.50;99.90;;;;;;4971201;28;20031;-72
2022/06/08 08:15:43;;;;;;;0.25;0.15;;;19.60;99.90;;;;;;4971486;28;20031;-72
2022/06/08 08:18:09;;;;;;;0.00;0.00;;;19.50;99.90;;;;;;4971280;28;20031;-72
2022/06/08 08:20:36;;;;;;;0.20;0.20;;;19.40;99.90;;;;;;4969261;28;20054;-72
2022/06/08 08:23:02;;;;;;;0.00;0.00;;;19.50;99.90;;;;;;4969923;28;20598;-72
2022/06/08 08:25:29;;;;;;;0.00;0.00;;;19.70;99.90;;;;;;4969913;28;20030;-72
2022/06/08 08:27:57;;;;;;;2.28;0.98;;;19.70;99.90;;;;;;4969794;28;20042;-74
2022/06/08 08:30:26;;;;;;;1.55;1.10;;;19.60;99.90;;;;;;4966799;28;20031;-73
2022/06/08 08:32:52;;;;;;;0.00;0.00;;;19.80;99.90;;;;;;4970019;28;20109;-73
2022/06/08 08:35:21;;;;;;;0.20;0.20;;;19.70;99.90;;;;;;4969531;28;20038;-72
2022/06/08 08:37:47;;;;;;;0.00;0.00;;;19.70;99.90;;;;;;4970247;28;20128;-72
2022/06/08 08:40:31;;;;;;;0.00;0.00;;;19.70;99.90;;;;;;4968896;28;20403;-72
2022/06/08 08:42:58;;;;;;;0.03;0.03;;;20.00;99.90;;;;;;4971040;28;20034;-72
2022/06/08 08:45:24;;;;;;;0.32;0.30;;;20.00;99.90;;;;;;4971080;28;20170;-72
2022/06/08 08:48:14;;;;;;;0.00;0.00;;;20.10;99.90;;;;;;4969792;28;20106;-73
2022/06/08 08:51:32;;;;;;;0.17;0.10;;;20.20;99.90;;;;;;4968941;28;20479;-72
2022/06/08 08:54:26;;;;;;;0.10;0.08;;;20.20;99.90;;;;;;4930004;29;20075;-73
2022/06/08 08:57:04;;;;;;;0.00;0.00;;;20.10;99.90;;;;;;4975167;28;20102;-73
2022/06/08 08:59:32;;;;;;;0.00;0.00;;;20.20;99.90;;;;;;4972757;28;20457;-73
2022/06/08 09:01:59;;;;;;;0.00;0.00;;;20.40;99.90;;;;;;4972206;28;20131;-72
2022/06/08 09:04:33;;;;;;;0.00;0.00;;;20.40;99.90;;;;;;4973619;28;20632;-72
2022/06/08 09:07:14;;;;;;;0.13;0.13;;;20.50;99.90;;;;;;4974592;28;20035;-73
2022/06/08 09:09:41;;;;;;;0.20;0.20;;;20.60;99.90;;;;;;4973664;28;20085;-72
2022/06/08 09:12:13;;;;;;;0.00;0.00;;;20.70;99.90;;;;;;4973218;28;20035;-73
2022/06/08 09:14:49;;;;;;;0.00;0.00;;;21.00;99.90;;;;;;4972455;28;20503;-73
2022/06/08 09:17:20;;;;;;;0.00;0.00;;;20.80;99.90;;;;;;4975015;28;20137;-72
2022/06/08 09:19:50;;;;;;;0.00;0.00;;;21.00;99.70;;;;;;4973470;28;20038;-73
2022/06/08 09:22:31;;;;;;;0.00;0.00;;;21.20;99.90;;;;;;4974476;28;20501;-72
2022/06/08 09:25:34;;;;;;;0.10;0.10;;;21.30;99.10;;;;;;4973289;28;20043;-72
2022/06/08 09:28:02;;;;;;;0.00;0.00;;;21.20;98.70;;;;;;4974593;28;20022;-73
2022/06/08 09:30:32;;;;;;;1.35;0.43;;;21.40;98.60;;;;;;4965153;28;20499;-73
2022/06/08 09:33:13;;;;;;;0.00;0.00;;;21.40;98.70;;;;;;4972915;28;20106;-73
2022/06/08 09:35:55;;;;;;;0.90;0.20;;;21.70;98.80;;;;;;4974524;28;20042;-74
2022/06/08 09:38:25;;;;;;;0.00;0.00;;;21.60;96.40;;;;;;4972108;28;20035;-74
2022/06/08 09:41:09;;;;;;;0.00;0.00;;;21.70;96.20;;;;;;4973734;28;20432;-74
2022/06/08 09:44:06;;;;;;;0.00;0.00;;;21.80;98.10;;;;;;4973740;28;20427;-74
2022/06/08 09:53:49;;;;;;;0.20;0.13;;;22.10;96.20;;;;;;4953656;29;20054;-73
2022/06/08 09:56:55;;;;;;;0.00;0.00;;;22.20;96.50;;;;;;4954468;28;20045;-73
2022/06/08 09:59:51;;;;;;;0.00;0.00;;;22.30;95.80;;;;;;4960323;28;20050;-74
2022/06/08 10:02:32;;;;;;;0.55;0.45;;;22.40;95.30;;;;;;4976726;28;20038;-73
2022/06/08 10:05:10;;;;;;;;;;;22.40;95.40;;;;;;4993407;28;20554;-74
2022/06/08 10:07:57;;;;;;;0.00;0.00;;;22.60;94.00;;;;;;4992189;28;19920;-73
2022/06/08 10:10:52;;;;;;;0.00;0.00;;;22.60;94.60;;;;;;4992381;28;20035;-72
2022/06/08 10:13:42;;;;;;;0.00;0.00;;;22.70;92.90;;;;;;4981734;28;20375;-71
2022/06/08 10:16:18;;;;;;;0.80;0.38;;;22.60;93.40;;;;;;4973465;28;20085;-73
2022/06/08 10:19:01;;;;;;;0.10;0.10;;;22.80;93.40;;;;;;4971274;28;20035;-73
2022/06/08 10:21:39;;;;;;;0.30;0.30;;;22.70;93.50;;;;;;4956734;28;20027;-72
2022/06/08 10:24:17;;;;;;;0.10;0.03;;;22.80;93.50;;;;;;4973598;28;20033;-71
2022/06/08 10:27:02;;;;;;;0.00;0.00;;;22.70;94.00;;;;;;4972248;28;20399;-73
2022/06/08 10:30:20;;;;;;;0.00;0.00;;;22.60;94.60;;;;;;4971145;28;20117;-73
2022/06/08 10:33:11;;;;;;;1.63;0.20;;;22.90;93.80;;;;;;4971908;28;20387;-73
2022/06/08 10:35:49;;;;;;;0.20;0.20;;;22.90;93.30;;;;;;4971944;28;20054;-72
2022/06/08 10:38:30;;;;;;;0.75;0.75;;;22.80;93.30;;;;;;4970655;28;20146;-82
2022/06/08 10:44:01;;;;;;;0.00;0.00;;;22.80;93.50;;;;;;4972654;28;20046;-83
2022/06/08 10:46:46;;;;;;;0.15;0.15;;;22.80;94.00;;;;;;4955672;28;20030;-72
2022/06/08 10:49:59;;;;;;;0.00;0.00;;;22.70;93.70;;;;;;4970795;28;20538;-72
2022/06/08 10:52:28;;;;;;;7.43;1.25;;;23.40;93.60;;;;;;4981165;28;20050;-72
2022/06/08 10:55:16;;;;;;;0.00;0.00;;;23.80;92.90;;;;;;4971665;28;20089;-74
2022/06/08 10:58:08;;;;;;;0.00;0.00;;;23.60;92.80;;;;;;4969094;28;20093;-71
2022/06/08 11:01:00;;;;;;;0.00;0.00;;;23.10;93.90;;;;;;4978238;28;20553;-71
2022/06/08 11:03:52;;;;;;;0.10;0.10;;;23.40;93.40;;;;;;4971005;28;20034;-71
2022/06/08 11:06:45;;;;;;;0.00;0.00;;;23.20;93.30;;;;;;4971095;28;20053;-71
2022/06/08 11:09:39;;;;;;;0.00;0.00;;;23.50;92.90;;;;;;4971087;28;20459;-72
2022/06/08 11:12:11;;;;;;;0.00;0.00;;;23.90;92.90;;;;;;4970534;28;20049;-72
2022/06/08 11:14:57;;;;;;;0.00;0.00;;;23.90;93.30;;;;;;4972181;28;20100;-73
2022/06/08 11:17:23;;;;;;;0.00;0.00;;;24.20;92.20;;;;;;4972711;28;20062;-73
2022/06/08 11:19:53;;;;;;;0.57;0.05;;;24.40;92.30;;;;;;4971096;28;20066;-72
2022/06/08 11:22:42;;;;;;;;;;;24.30;92.30;;;;;;4971434;28;20039;-72
2022/06/08 11:25:20;;;;;;;0.00;0.00;;;24.50;89.80;;;;;;4971833;28;19953;-72
2022/06/08 11:28:31;;;;;;;0.00;0.00;;;24.30;90.60;;;;;;4966804;28;20039;-72
2022/06/08 11:31:25;;;;;;;0.47;0.47;;;24.40;89.50;;;;;;4970849;28;20452;-72
2022/06/08 11:34:18;;;;;;;0.00;0.00;;;24.50;90.20;;;;;;4969982;28;20031;-72
2022/06/08 11:37:18;;;;;;;0.10;0.10;;;24.30;88.10;;;;;;4970931;28;20696;-71
2022/06/08 11:40:19;;;;;;;0.10;0.10;;;24.10;89.10;;;;;;4971328;28;20030;-72
2022/06/08 11:43:18;;;;;;;0.03;0.00;;;24.10;87.30;;;;;;4971081;28;20035;-71
2022/06/08 11:45:47;;;;;;;0.22;0.22;;;23.80;88.60;;;;;;4966303;28;20039;-72
2022/06/08 11:48:29;;;;;;;0.00;0.00;;;23.90;90.20;;;;;;4971217;28;20038;-73
2022/06/08 11:51:01;;;;;;;0.03;0.03;;;24.20;89.00;;;;;;4970184;28;20039;-73
2022/06/08 11:53:29;;;;;;;0.25;0.25;;;24.40;88.40;;;;;;4970941;28;20035;-72
2022/06/08 11:56:29;;;;;;;0.00;0.00;;;24.20;87.30;;;;;;4971062;28;20487;-72
2022/06/08 11:59:01;;;;;;;0.10;0.10;;;23.80;88.90;;;;;;4968963;28;20078;-72
2022/06/08 12:01:42;;;;;;;0.00;0.00;;;23.50;89.00;;;;;;4969909;28;20484;-71
2022/06/08 12:04:19;;;;;;;0.35;0.32;;;23.50;88.00;;;;;;4965954;28;20034;-72
2022/06/08 12:06:46;;;;;;;0.20;0.20;;;23.70;85.90;;;;;;4969962;28;20034;-72
2022/06/08 12:09:37;;;;;;;0.20;0.20;;;23.50;87.00;;;;;;4973437;28;20022;-72
2022/06/08 12:12:13;;;;;;;37.90;2.13;;;23.50;87.30;;;;;;4970382;28;20141;-72
2022/06/08 12:14:41;;;;;;;0.00;0.00;;;23.50;87.40;;;;;;4969659;28;20553;-72
2022/06/08 12:17:10;;;;;;;1.23;0.75;;;23.60;86.40;;;;;;4969666;28;20023;-72
2022/06/08 12:19:53;;;;;;;0.00;0.00;;;23.50;87.50;;;;;;4970408;28;20503;-71
2022/06/08 12:22:20;;;;;;;0.00;0.00;;;23.60;88.00;;;;;;4969786;28;20035;-71
2022/06/08 12:25:21;;;;;;;0.00;0.00;;;23.50;86.70;;;;;;4971164;28;20082;-72
2022/06/08 12:28:02;;;;;;;0.03;0.03;;;23.50;85.90;;;;;;4970828;28;20035;-71
2022/06/08 12:30:37;;;;;;;0.22;0.22;;;23.20;84.70;;;;;;4972675;28;20027;-72
2022/06/08 12:33:14;;;;;;;0.00;0.00;;;23.00;85.60;;;;;;4975631;28;20449;-72
2022/06/08 12:35:56;;;;;;;0.00;0.00;;;23.00;85.40;;;;;;4976877;28;20037;-73
2022/06/08 12:38:27;;;;;;;0.22;0.10;;;23.10;83.90;;;;;;4974622;28;20039;-73
2022/06/08 12:41:11;;;;;;;1.35;1.08;;;23.10;84.70;;;;;;4976170;28;20050;-74
2022/06/08 12:44:06;;;;;;;0.00;0.00;;;23.10;84.30;;;;;;4976921;28;20039;-73
2022/06/08 12:46:36;;;;;;;0.80;0.52;;;23.20;83.90;;;;;;4947323;28;20097;-72
2022/06/08 12:49:54;;;;;;;0.00;0.00;;;23.30;84.30;;;;;;4976333;28;20050;-73
2022/06/08 12:52:28;;;;;;;0.15;0.15;;;23.20;84.70;;;;;;4963638;28;20054;-72
2022/06/08 12:54:55;;;;;;;10.93;0.63;;;23.30;84.10;;;;;;4975919;28;20027;-73
2022/06/08 12:57:28;;;;;;;0.25;0.25;;;23.10;83.30;;;;;;4975336;28;20038;-73
2022/06/08 12:59:57;;;;;;;0.00;0.00;;;23.30;84.00;;;;;;4975479;28;20042;-72
2022/06/08 13:02:32;;;;;;;0.10;0.10;;;23.20;83.30;;;;;;4975156;28;20038;-72
2022/06/08 13:05:00;;;;;;;0.00;0.00;;;23.10;84.70;;;;;;4976046;28;20509;-71
2022/06/08 13:07:29;;;;;;;0.00;0.00;;;23.00;84.10;;;;;;4970786;28;20053;-71
2022/06/08 13:09:55;;;;;;;0.13;0.13;;;23.00;86.00;;;;;;4976354;28;20474;-72
2022/06/08 13:12:32;;;;;;;0.00;0.00;;;23.00;83.50;;;;;;4976147;28;20082;-72
2022/06/08 13:14:59;;;;;;;0.00;0.00;;;22.90;82.70;;;;;;4975906;28;20436;-72
2022/06/08 13:17:25;;;;;;;0.00;0.00;;;22.80;84.00;;;;;;4975361;28;20570;-72
2022/06/08 13:19:52;;;;;;;3.00;1.45;;;22.70;83.90;;;;;;4976182;28;20134;-72
2022/06/08 13:22:18;;;;;;;0.00;0.00;;;22.70;84.30;;;;;;4976543;28;20034;-72
2022/06/08 13:24:44;;;;;;;0.30;0.30;;;22.80;85.40;;;;;;4976924;28;20135;-73
2022/06/08 13:27:15;;;;;;;0.00;0.00;;;22.80;87.70;;;;;;4976448;28;20586;-73
2022/06/08 13:29:44;;;;;;;0.00;0.00;;;22.50;89.10;;;;;;4955579;28;20027;-72
2022/06/08 13:32:20;;;;;;;0.00;0.00;;;22.40;89.20;;;;;;4968074;28;20032;-72
2022/06/08 13:34:47;;;;;;;0.40;0.40;;;22.50;89.40;;;;;;4976038;28;20031;-72
2022/06/08 13:37:41;;;;;;;0.00;0.00;;;22.50;89.60;;;;;;4974828;28;20394;-72
2022/06/08 13:40:27;;;;;;;0.00;0.00;;;22.40;90.00;;;;;;4975015;28;20035;-73
2022/06/08 13:42:54;;;;;;;0.43;0.38;;;22.30;89.90;;;;;;4969685;28;20039;-73
2022/06/08 13:45:41;;;;;;;0.38;0.20;;;22.30;87.70;;;;;;4973889;28;20027;-72